sensor_id;sensor_type;location;lat;lon;timestamp;temperature;humidity
38582;DHT22;24349;53.720;10.014;2022-08-30T00:00:09;16.60;99.90
38582;DHT22;24349;53.720;10.014;2022-08-30T00:02:54;16.60;99.90
38582;DHT22;24349;53.720;10.014;2022-08-30T00:05:21;16.60;99.90
38582;DHT22;24349;53.720;10.014;2022-08-30T00:07:47;16.60;99.90
38582;DHT22;24349;53.720;10.014;2022-08-30T00:10:13;16.60;99.90
38582;DHT22;24349;53.720;10.014;2022-08-30T00:12:39;16.50;99.90
38582;DHT22;24349;53.720;10.014;2022-08-30T00:15:05;16.50;99.90
38582;DHT22;24349;53.720;10.014;2022-08-30T00:17:32;16.50;99.90
38582;DHT22;24349;53.720;10.014;2022-08-30T00:19:58;16.50;99.90
38582;DHT22;24349;53.720;10.014;2022-08-30T00:22:24;16.40;99.90
38582;DHT22;24349;53.720;10.014;2022-08-30T00:24:49;16.30;99.90
38582;DHT22;24349;53.720;10.014;2022-08-30T00:27:15;16.30;99.90
38582;DHT22;24349;53.720;10.014;2022-08-30T00:29:41;16.20;99.90
38582;DHT22;24349;53.720;10.014;2022-08-30T00:32:07;16.10;99.90
38582;DHT22;24349;53.720;10.014;2022-08-30T00:34:33;16.10;99.90
38582;DHT22;24349;53.720;10.014;2022-08-30T00:36:59;16.00;99.90
38582;DHT22;24349;53.720;10.014;2022-08-30T00:39:25;16.00;99.90
38582;DHT22;24349;53.720;10.014;2022-08-30T00:41:51;16.00;99.90
38582;DHT22;24349;53.720;10.014;2022-08-30T00:44:16;15.90;99.90
38582;DHT22;24349;53.720;10.014;2022-08-30T00:46:42;16.00;99.90
38582;DHT22;24349;53.720;10.014;2022-08-30T00:49:10;15.90;99.90
38582;DHT22;24349;53.720;10.014;2022-08-30T00:51:38;15.80;99.90
38582;DHT22;24349;53.720;10.014;2022-08-30T00:54:05;15.70;99.90
38582;DHT22;24349;53.720;10.014;2022-08-30T00:56:31;15.70;99.90
38582;DHT22;24349;53.720;10.014;2022-08-30T00:59:00;15.60;99.90
38582;DHT22;24349;53.720;10.014;2022-08-30T01:01:26;15.60;99.90
38582;DHT22;24349;53.720;10.014;2022-08-30T01:03:53;15.60;99.90
38582;DHT22;24349;53.720;10.014;2022-08-30T01:06:18;15.70;99.90
38582;DHT22;24349;53.720;10.014;2022-08-30T01:08:45;15.70;99.90
38582;DHT22;24349;53.720;10.014;2022-08-30T01:11:13;15.70;99.90
38582;DHT22;24349;53.720;10.014;2022-08-30T01:13:39;15.80;99.90
38582;DHT22;24349;53.720;10.014;2022-08-30T01:16:05;15.70;99.90
38582;DHT22;24349;53.720;10.014;2022-08-30T01:18:31;15.70;99.90
38582;DHT22;24349;53.720;10.014;2022-08-30T01:23:36;15.70;99.90
38582;DHT22;24349;53.720;10.014;2022-08-30T01:26:04;15.70;99.90
38582;DHT22;24349;53.720;10.014;2022-08-30T01:28:31;15.80;99.90
38582;DHT22;24349;53.720;10.014;2022-08-30T01:30:57;15.90;99.90
38582;DHT22;24349;53.720;10.014;2022-08-30T01:33:23;15.90;99.90
38582;DHT22;24349;53.720;10.014;2022-08-30T01:36:01;15.90;99.90
38582;DHT22;24349;53.720;10.014;2022-08-30T01:38:32;15.90;99.90
38582;DHT22;24349;53.720;10.014;2022-08-30T01:41:23;16.00;99.90
38582;DHT22;24349;53.720;10.014;2022-08-30T01:43:51;16.00;99.90
38582;DHT22;24349;53.720;10.014;2022-08-30T01:46:19;16.00;99.90
38582;DHT22;24349;53.720;10.014;2022-08-30T01:48:46;16.00;99.90
38582;DHT22;24349;53.720;10.014;2022-08-30T01:51:13;15.90;99.90
38582;DHT22;24349;53.720;10.014;2022-08-30T01:53:40;15.90;99.90
38582;DHT22;24349;53.720;10.014;2022-08-30T01:56:07;16.00;99.90
38582;DHT22;24349;53.720;10.014;2022-08-30T01:58:37;16.00;99.90
38582;DHT22;24349;53.720;10.014;2022-08-30T02:01:05;16.00;99.90
38582;DHT22;24349;53.720;10.014;2022-08-30T02:03:32;16.00;99.90
38582;DHT22;24349;53.720;10.014;2022-08-30T02:06:11;16.00;99.90
38582;DHT22;24349;53.720;10.014;2022-08-30T02:08:38;16.00;99.90
38582;DHT22;24349;53.720;10.014;2022-08-30T02:11:05;16.00;99.90
38582;DHT22;24349;53.720;10.014;2022-08-30T02:13:31;16.10;99.90
38582;DHT22;24349;53.720;10.014;2022-08-30T02:15:58;16.10;99.90
38582;DHT22;24349;53.720;10.014;2022-08-30T02:18:25;16.10;99.90
38582;DHT22;24349;53.720;10.014;2022-08-30T02:20:51;16.10;99.90
38582;DHT22;24349;53.720;10.014;2022-08-30T02:23:17;16.10;99.90
38582;DHT22;24349;53.720;10.014;2022-08-30T02:25:43;16.10;99.90
38582;DHT22;24349;53.720;10.014;2022-08-30T02:28:10;16.10;99.90
38582;DHT22;24349;53.720;10.014;2022-08-30T02:30:36;16.10;99.90
38582;DHT22;24349;53.720;10.014;2022-08-30T02:33:02;16.10;99.90
38582;DHT22;24349;53.720;10.014;2022-08-30T02:35:28;16.10;99.90
38582;DHT22;24349;53.720;10.014;2022-08-30T02:37:54;16.10;99.90
38582;DHT22;24349;53.720;10.014;2022-08-30T02:40:20;16.10;99.90
38582;DHT22;24349;53.720;10.014;2022-08-30T02:42:47;16.10;99.90
38582;DHT22;24349;53.720;10.014;2022-08-30T02:45:14;16.10;99.90
38582;DHT22;24349;53.720;10.014;2022-08-30T02:47:40;16.20;99.90
38582;DHT22;24349;53.720;10.014;2022-08-30T02:50:07;16.20;99.90
38582;DHT22;24349;53.720;10.014;2022-08-30T02:52:33;16.20;99.90
38582;DHT22;24349;53.720;10.014;2022-08-30T02:54:59;16.20;99.90
38582;DHT22;24349;53.720;10.014;2022-08-30T02:57:25;16.20;99.90
38582;DHT22;24349;53.720;10.014;2022-08-30T02:59:50;16.30;99.90
38582;DHT22;24349;53.720;10.014;2022-08-30T03:02:16;16.30;99.90
38582;DHT22;24349;53.720;10.014;2022-08-30T03:04:42;16.20;99.90
38582;DHT22;24349;53.720;10.014;2022-08-30T03:07:11;16.30;99.90
38582;DHT22;24349;53.720;10.014;2022-08-30T03:09:37;16.30;99.90
38582;DHT22;24349;53.720;10.014;2022-08-30T03:12:04;16.30;99.90
38582;DHT22;24349;53.720;10.014;2022-08-30T03:14:31;16.30;99.90
38582;DHT22;24349;53.720;10.014;2022-08-30T03:16:57;16.30;99.90
38582;DHT22;24349;53.720;10.014;2022-08-30T03:19:23;16.40;99.90
38582;DHT22;24349;53.720;10.014;2022-08-30T03:21:50;16.40;99.90
38582;DHT22;24349;53.720;10.014;2022-08-30T03:24:16;16.40;99.90
38582;DHT22;24349;53.720;10.014;2022-08-30T03:26:42;16.40;99.90
38582;DHT22;24349;53.720;10.014;2022-08-30T03:29:08;16.40;99.90
38582;DHT22;24349;53.720;10.014;2022-08-30T03:31:33;16.40;99.90
38582;DHT22;24349;53.720;10.014;2022-08-30T03:33:59;16.40;99.90
38582;DHT22;24349;53.720;10.014;2022-08-30T03:36:25;16.30;99.90
38582;DHT22;24349;53.720;10.014;2022-08-30T03:38:50;16.30;99.90
38582;DHT22;24349;53.720;10.014;2022-08-30T03:41:16;16.30;99.90
38582;DHT22;24349;53.720;10.014;2022-08-30T03:43:42;16.30;99.90
38582;DHT22;24349;53.720;10.014;2022-08-30T03:46:10;16.30;99.90
38582;DHT22;24349;53.720;10.014;2022-08-30T03:48:36;16.30;99.90
38582;DHT22;24349;53.720;10.014;2022-08-30T03:51:02;16.30;99.90
38582;DHT22;24349;53.720;10.014;2022-08-30T03:53:28;16.30;99.90
38582;DHT22;24349;53.720;10.014;2022-08-30T03:55:54;16.30;99.90
38582;DHT22;24349;53.720;10.014;2022-08-30T03:58:20;16.30;99.90
38582;DHT22;24349;53.720;10.014;2022-08-30T04:00:46;16.30;99.90
38582;DHT22;24349;53.720;10.014;2022-08-30T04:03:11;16.20;99.90
38582;DHT22;24349;53.720;10.014;2022-08-30T04:05:37;16.20;99.90
38582;DHT22;24349;53.720;10.014;2022-08-30T04:08:03;16.20;99.90
38582;DHT22;24349;53.720;10.014;2022-08-30T04:10:29;16.20;99.90
38582;DHT22;24349;53.720;10.014;2022-08-30T04:12:55;16.30;99.90
38582;DHT22;24349;53.720;10.014;2022-08-30T04:15:21;16.30;99.90
38582;DHT22;24349;53.720;10.014;2022-08-30T04:17:47;16.30;99.90
38582;DHT22;24349;53.720;10.014;2022-08-30T04:20:13;16.30;99.90
38582;DHT22;24349;53.720;10.014;2022-08-30T04:22:39;16.30;99.90
38582;DHT22;24349;53.720;10.014;2022-08-30T04:25:05;16.20;99.90
38582;DHT22;24349;53.720;10.014;2022-08-30T04:27:31;16.10;99.90
38582;DHT22;24349;53.720;10.014;2022-08-30T04:29:58;15.90;99.90
38582;DHT22;24349;53.720;10.014;2022-08-30T04:32:24;15.90;99.90
38582;DHT22;24349;53.720;10.014;2022-08-30T04:34:50;16.00;99.90
38582;DHT22;24349;53.720;10.014;2022-08-30T04:37:19;16.00;99.90
38582;DHT22;24349;53.720;10.014;2022-08-30T04:39:45;16.10;99.90
38582;DHT22;24349;53.720;10.014;2022-08-30T04:42:11;16.10;99.90
38582;DHT22;24349;53.720;10.014;2022-08-30T04:44:36;16.20;99.90
38582;DHT22;24349;53.720;10.014;2022-08-30T04:47:02;16.20;99.90
38582;DHT22;24349;53.720;10.014;2022-08-30T04:49:28;16.20;99.90
38582;DHT22;24349;53.720;10.014;2022-08-30T04:51:54;16.20;99.90
38582;DHT22;24349;53.720;10.014;2022-08-30T04:54:20;16.20;99.90
38582;DHT22;24349;53.720;10.014;2022-08-30T04:56:46;16.20;99.90
38582;DHT22;24349;53.720;10.014;2022-08-30T04:59:11;16.20;99.90
38582;DHT22;24349;53.720;10.014;2022-08-30T05:01:37;16.20;99.90
38582;DHT22;24349;53.720;10.014;2022-08-30T05:04:03;16.20;99.90
38582;DHT22;24349;53.720;10.014;2022-08-30T05:06:29;16.10;99.90
38582;DHT22;24349;53.720;10.014;2022-08-30T05:08:58;16.10;99.90
38582;DHT22;24349;53.720;10.014;2022-08-30T05:11:25;16.10;99.90
38582;DHT22;24349;53.720;10.014;2022-08-30T05:13:52;16.10;99.90
38582;DHT22;24349;53.720;10.014;2022-08-30T05:16:18;16.10;99.90
38582;DHT22;24349;53.720;10.014;2022-08-30T05:18:48;16.20;99.90
38582;DHT22;24349;53.720;10.014;2022-08-30T05:21:25;16.20;99.90
38582;DHT22;24349;53.720;10.014;2022-08-30T05:23:56;16.10;99.90
38582;DHT22;24349;53.720;10.014;2022-08-30T05:26:28;16.20;99.90
38582;DHT22;24349;53.720;10.014;2022-08-30T05:28:54;16.20;99.90
38582;DHT22;24349;53.720;10.014;2022-08-30T05:31:29;16.10;99.90
38582;DHT22;24349;53.720;10.014;2022-08-30T05:33:55;16.20;99.90
38582;DHT22;24349;53.720;10.014;2022-08-30T05:36:24;16.20;99.90
38582;DHT22;24349;53.720;10.014;2022-08-30T05:38:50;16.20;99.90
38582;DHT22;24349;53.720;10.014;2022-08-30T05:41:21;16.20;99.90
38582;DHT22;24349;53.720;10.014;2022-08-30T05:43:47;16.20;99.90
38582;DHT22;24349;53.720;10.014;2022-08-30T05:46:14;16.30;99.90
38582;DHT22;24349;53.720;10.014;2022-08-30T05:48:44;16.40;99.90
38582;DHT22;24349;53.720;10.014;2022-08-30T05:51:13;16.40;99.90
38582;DHT22;24349;53.720;10.014;2022-08-30T05:53:39;16.50;99.90
38582;DHT22;24349;53.720;10.014;2022-08-30T05:56:08;16.50;99.90
38582;DHT22;24349;53.720;10.014;2022-08-30T05:58:34;16.60;99.90
38582;DHT22;24349;53.720;10.014;2022-08-30T06:01:01;16.70;99.90
38582;DHT22;24349;53.720;10.014;2022-08-30T06:03:27;16.70;99.90
38582;DHT22;24349;53.720;10.014;2022-08-30T06:05:53;16.90;99.90
38582;DHT22;24349;53.720;10.014;2022-08-30T06:08:20;17.00;99.90
38582;DHT22;24349;53.720;10.014;2022-08-30T06:10:46;17.10;99.90
38582;DHT22;24349;53.720;10.014;2022-08-30T06:13:12;17.30;99.90
38582;DHT22;24349;53.720;10.014;2022-08-30T06:15:39;17.50;99.90
38582;DHT22;24349;53.720;10.014;2022-08-30T06:18:05;17.60;99.90
38582;DHT22;24349;53.720;10.014;2022-08-30T06:20:31;17.90;99.90
38582;DHT22;24349;53.720;10.014;2022-08-30T06:22:57;18.10;99.90
38582;DHT22;24349;53.720;10.014;2022-08-30T06:25:23;18.20;99.90
38582;DHT22;24349;53.720;10.014;2022-08-30T06:27:48;18.30;99.90
38582;DHT22;24349;53.720;10.014;2022-08-30T06:30:14;18.70;99.90
38582;DHT22;24349;53.720;10.014;2022-08-30T06:32:40;19.10;99.90
38582;DHT22;24349;53.720;10.014;2022-08-30T06:35:06;19.60;99.90
38582;DHT22;24349;53.720;10.014;2022-08-30T06:37:33;20.10;99.90
38582;DHT22;24349;53.720;10.014;2022-08-30T06:39:59;20.60;99.90
38582;DHT22;24349;53.720;10.014;2022-08-30T06:42:26;20.60;99.90
38582;DHT22;24349;53.720;10.014;2022-08-30T06:45:00;20.80;99.90
38582;DHT22;24349;53.720;10.014;2022-08-30T06:47:27;21.30;99.90
38582;DHT22;24349;53.720;10.014;2022-08-30T06:49:53;21.80;99.90
38582;DHT22;24349;53.720;10.014;2022-08-30T06:52:19;22.30;99.90
38582;DHT22;24349;53.720;10.014;2022-08-30T06:54:45;22.60;99.90
38582;DHT22;24349;53.720;10.014;2022-08-30T06:57:11;22.60;99.90
38582;DHT22;24349;53.720;10.014;2022-08-30T06:59:37;22.70;99.90
38582;DHT22;24349;53.720;10.014;2022-08-30T07:02:04;22.90;99.90
38582;DHT22;24349;53.720;10.014;2022-08-30T07:04:30;23.00;99.90
38582;DHT22;24349;53.720;10.014;2022-08-30T07:06:57;23.30;99.90
38582;DHT22;24349;53.720;10.014;2022-08-30T07:09:23;23.50;99.90
38582;DHT22;24349;53.720;10.014;2022-08-30T07:11:49;23.70;99.90
38582;DHT22;24349;53.720;10.014;2022-08-30T07:14:15;23.60;99.90
38582;DHT22;24349;53.720;10.014;2022-08-30T07:16:42;23.20;99.90
38582;DHT22;24349;53.720;10.014;2022-08-30T07:19:08;22.60;99.90
38582;DHT22;24349;53.720;10.014;2022-08-30T07:21:39;21.80;99.90
38582;DHT22;24349;53.720;10.014;2022-08-30T07:24:08;21.50;99.90
38582;DHT22;24349;53.720;10.014;2022-08-30T07:26:40;21.10;99.90
38582;DHT22;24349;53.720;10.014;2022-08-30T07:29:07;20.90;99.90
38582;DHT22;24349;53.720;10.014;2022-08-30T07:31:34;20.70;99.90
38582;DHT22;24349;53.720;10.014;2022-08-30T07:34:01;20.40;99.90
38582;DHT22;24349;53.720;10.014;2022-08-30T07:36:27;20.10;99.90
38582;DHT22;24349;53.720;10.014;2022-08-30T07:38:53;19.90;99.90
38582;DHT22;24349;53.720;10.014;2022-08-30T07:41:23;19.80;99.90
38582;DHT22;24349;53.720;10.014;2022-08-30T07:43:49;19.80;99.90
38582;DHT22;24349;53.720;10.014;2022-08-30T07:46:15;19.60;99.90
38582;DHT22;24349;53.720;10.014;2022-08-30T07:48:41;19.50;99.90
38582;DHT22;24349;53.720;10.014;2022-08-30T07:51:13;19.40;99.90
38582;DHT22;24349;53.720;10.014;2022-08-30T07:53:39;19.50;99.90
38582;DHT22;24349;53.720;10.014;2022-08-30T07:56:05;19.60;99.90
38582;DHT22;24349;53.720;10.014;2022-08-30T07:58:31;19.70;99.90
38582;DHT22;24349;53.720;10.014;2022-08-30T08:00:57;19.70;99.90
38582;DHT22;24349;53.720;10.014;2022-08-30T08:03:25;19.80;99.90
38582;DHT22;24349;53.720;10.014;2022-08-30T08:05:51;19.90;99.90
38582;DHT22;24349;53.720;10.014;2022-08-30T08:08:18;19.90;99.90
38582;DHT22;24349;53.720;10.014;2022-08-30T08:10:44;20.00;99.90
38582;DHT22;24349;53.720;10.014;2022-08-30T08:13:10;20.00;99.90
38582;DHT22;24349;53.720;10.014;2022-08-30T08:15:36;20.00;99.90
38582;DHT22;24349;53.720;10.014;2022-08-30T08:18:02;20.00;99.90
38582;DHT22;24349;53.720;10.014;2022-08-30T08:20:28;20.00;99.90
38582;DHT22;24349;53.720;10.014;2022-08-30T08:22:54;19.90;99.90
38582;DHT22;24349;53.720;10.014;2022-08-30T08:25:20;19.80;99.90
38582;DHT22;24349;53.720;10.014;2022-08-30T08:27:47;19.80;99.90
38582;DHT22;24349;53.720;10.014;2022-08-30T08:30:16;19.80;99.90
38582;DHT22;24349;53.720;10.014;2022-08-30T08:32:42;19.80;99.90
38582;DHT22;24349;53.720;10.014;2022-08-30T08:35:08;20.00;99.90
38582;DHT22;24349;53.720;10.014;2022-08-30T08:37:36;20.00;99.90
38582;DHT22;24349;53.720;10.014;2022-08-30T08:40:04;19.90;99.90
38582;DHT22;24349;53.720;10.014;2022-08-30T08:42:55;19.90;99.90
38582;DHT22;24349;53.720;10.014;2022-08-30T08:45:27;19.70;99.90
38582;DHT22;24349;53.720;10.014;2022-08-30T08:50:47;19.60;99.90
38582;DHT22;24349;53.720;10.014;2022-08-30T08:53:35;19.60;99.90
38582;DHT22;24349;53.720;10.014;2022-08-30T08:56:11;19.70;99.90
38582;DHT22;24349;53.720;10.014;2022-08-30T08:58:58;19.70;99.90
38582;DHT22;24349;53.720;10.014;2022-08-30T09:01:26;19.90;99.90
38582;DHT22;24349;53.720;10.014;2022-08-30T09:03:54;20.10;99.90
38582;DHT22;24349;53.720;10.014;2022-08-30T09:06:25;20.20;99.90
38582;DHT22;24349;53.720;10.014;2022-08-30T09:08:55;20.30;99.90
38582;DHT22;24349;53.720;10.014;2022-08-30T09:11:29;20.30;99.90
38582;DHT22;24349;53.720;10.014;2022-08-30T09:13:57;20.30;99.90
38582;DHT22;24349;53.720;10.014;2022-08-30T09:19:36;20.60;99.90
38582;DHT22;24349;53.720;10.014;2022-08-30T09:22:19;20.80;99.90
38582;DHT22;24349;53.720;10.014;2022-08-30T09:25:06;20.80;99.90
38582;DHT22;24349;53.720;10.014;2022-08-30T09:27:35;20.80;99.90
38582;DHT22;24349;53.720;10.014;2022-08-30T09:30:27;20.70;99.90
38582;DHT22;24349;53.720;10.014;2022-08-30T09:33:01;20.60;99.90
38582;DHT22;24349;53.720;10.014;2022-08-30T09:35:49;20.50;99.90
38582;DHT22;24349;53.720;10.014;2022-08-30T09:38:21;20.60;99.90
38582;DHT22;24349;53.720;10.014;2022-08-30T09:40:53;20.70;99.90
38582;DHT22;24349;53.720;10.014;2022-08-30T09:43:25;20.80;99.90
38582;DHT22;24349;53.720;10.014;2022-08-30T09:51:24;21.20;99.90
38582;DHT22;24349;53.720;10.014;2022-08-30T10:01:49;21.50;99.90
38582;DHT22;24349;53.720;10.014;2022-08-30T10:04:39;21.60;99.90
38582;DHT22;24349;53.720;10.014;2022-08-30T10:07:17;21.70;99.90
38582;DHT22;24349;53.720;10.014;2022-08-30T10:09:55;21.80;99.90
38582;DHT22;24349;53.720;10.014;2022-08-30T10:12:44;22.10;99.90
38582;DHT22;24349;53.720;10.014;2022-08-30T10:16:35;22.20;99.90
38582;DHT22;24349;53.720;10.014;2022-08-30T10:21:35;22.20;99.90
38582;DHT22;24349;53.720;10.014;2022-08-30T10:24:05;21.90;99.90
38582;DHT22;24349;53.720;10.014;2022-08-30T10:26:35;21.50;99.90
38582;DHT22;24349;53.720;10.014;2022-08-30T10:29:13;21.20;99.90
38582;DHT22;24349;53.720;10.014;2022-08-30T10:34:35;20.80;99.90
38582;DHT22;24349;53.720;10.014;2022-08-30T10:37:11;20.70;99.90
38582;DHT22;24349;53.720;10.014;2022-08-30T10:39:45;20.70;99.90
38582;DHT22;24349;53.720;10.014;2022-08-30T10:42:22;20.80;99.90
38582;DHT22;24349;53.720;10.014;2022-08-30T10:44:57;20.80;99.90
38582;DHT22;24349;53.720;10.014;2022-08-30T10:47:34;20.90;99.90
38582;DHT22;24349;53.720;10.014;2022-08-30T10:50:28;21.00;99.90
38582;DHT22;24349;53.720;10.014;2022-08-30T10:55:39;20.80;99.90
38582;DHT22;24349;53.720;10.014;2022-08-30T10:58:10;20.90;99.90
38582;DHT22;24349;53.720;10.014;2022-08-30T11:12:23;22.30;99.90
38582;DHT22;24349;53.720;10.014;2022-08-30T11:14:52;23.20;99.90
38582;DHT22;24349;53.720;10.014;2022-08-30T11:17:35;24.20;99.90
38582;DHT22;24349;53.720;10.014;2022-08-30T11:20:04;25.20;99.90
38582;DHT22;24349;53.720;10.014;2022-08-30T11:22:33;25.60;99.90
38582;DHT22;24349;53.720;10.014;2022-08-30T11:25:04;25.90;99.90
38582;DHT22;24349;53.720;10.014;2022-08-30T11:27:53;26.00;99.90
38582;DHT22;24349;53.720;10.014;2022-08-30T11:35:53;25.70;99.90
38582;DHT22;24349;53.720;10.014;2022-08-30T11:59:35;22.40;99.90
38582;DHT22;24349;53.720;10.014;2022-08-30T12:02:03;22.00;99.90
38582;DHT22;24349;53.720;10.014;2022-08-30T12:04:45;22.10;99.90
38582;DHT22;24349;53.720;10.014;2022-08-30T12:13:01;22.20;99.90
38582;DHT22;24349;53.720;10.014;2022-08-30T12:15:57;21.90;99.90
38582;DHT22;24349;53.720;10.014;2022-08-30T12:18:27;21.90;99.90
38582;DHT22;24349;53.720;10.014;2022-08-30T12:21:02;21.90;99.90
38582;DHT22;24349;53.720;10.014;2022-08-30T12:34:25;21.90;99.90
38582;DHT22;24349;53.720;10.014;2022-08-30T12:39:37;22.10;99.90
38582;DHT22;24349;53.720;10.014;2022-08-30T12:42:31;22.30;99.90
38582;DHT22;24349;53.720;10.014;2022-08-30T12:44:59;23.00;99.90
38582;DHT22;24349;53.720;10.014;2022-08-30T12:47:38;24.60;99.90
38582;DHT22;24349;53.720;10.014;2022-08-30T12:50:06;26.30;98.10
38582;DHT22;24349;53.720;10.014;2022-08-30T12:52:39;27.10;95.80
38582;DHT22;24349;53.720;10.014;2022-08-30T12:55:18;27.40;95.00
38582;DHT22;24349;53.720;10.014;2022-08-30T13:00:39;28.00;92.70
38582;DHT22;24349;53.720;10.014;2022-08-30T13:05:56;28.40;91.30
38582;DHT22;24349;53.720;10.014;2022-08-30T13:08:47;29.10;91.30
38582;DHT22;24349;53.720;10.014;2022-08-30T13:13:49;29.30;89.90
38582;DHT22;24349;53.720;10.014;2022-08-30T13:18:46;28.20;88.50
38582;DHT22;24349;53.720;10.014;2022-08-30T13:21:30;27.10;89.70
38582;DHT22;24349;53.720;10.014;2022-08-30T13:24:04;26.00;91.80
38582;DHT22;24349;53.720;10.014;2022-08-30T13:26:34;25.10;92.60
38582;DHT22;24349;53.720;10.014;2022-08-30T13:29:05;24.50;94.80
38582;DHT22;24349;53.720;10.014;2022-08-30T13:31:31;24.30;96.30
38582;DHT22;24349;53.720;10.014;2022-08-30T13:33:58;25.10;94.80
38582;DHT22;24349;53.720;10.014;2022-08-30T13:36:28;26.40;94.30
38582;DHT22;24349;53.720;10.014;2022-08-30T13:38:55;27.00;92.10
38582;DHT22;24349;53.720;10.014;2022-08-30T13:41:21;26.30;91.80
38582;DHT22;24349;53.720;10.014;2022-08-30T13:43:47;26.20;92.30
38582;DHT22;24349;53.720;10.014;2022-08-30T13:46:15;26.20;92.40
38582;DHT22;24349;53.720;10.014;2022-08-30T13:48:41;26.10;91.50
38582;DHT22;24349;53.720;10.014;2022-08-30T13:51:07;26.00;92.90
38582;DHT22;24349;53.720;10.014;2022-08-30T13:53:34;26.00;92.40
38582;DHT22;24349;53.720;10.014;2022-08-30T13:56:01;26.20;92.40
38582;DHT22;24349;53.720;10.014;2022-08-30T13:58:27;26.30;93.40
38582;DHT22;24349;53.720;10.014;2022-08-30T14:00:53;26.70;93.20
38582;DHT22;24349;53.720;10.014;2022-08-30T14:03:18;26.20;93.00
38582;DHT22;24349;53.720;10.014;2022-08-30T14:05:44;25.50;92.80
38582;DHT22;24349;53.720;10.014;2022-08-30T14:08:11;24.70;94.60
38582;DHT22;24349;53.720;10.014;2022-08-30T14:10:38;24.10;97.30
38582;DHT22;24349;53.720;10.014;2022-08-30T14:13:04;23.70;97.90
38582;DHT22;24349;53.720;10.014;2022-08-30T14:15:31;23.70;98.80
38582;DHT22;24349;53.720;10.014;2022-08-30T14:17:58;23.70;98.00
38582;DHT22;24349;53.720;10.014;2022-08-30T14:20:23;23.40;98.00
38582;DHT22;24349;53.720;10.014;2022-08-30T14:22:49;23.00;99.00
38582;DHT22;24349;53.720;10.014;2022-08-30T14:25:15;23.50;99.80
38582;DHT22;24349;53.720;10.014;2022-08-30T14:27:41;24.20;99.40
38582;DHT22;24349;53.720;10.014;2022-08-30T14:30:07;24.40;97.10
38582;DHT22;24349;53.720;10.014;2022-08-30T14:32:32;24.50;97.60
38582;DHT22;24349;53.720;10.014;2022-08-30T14:34:58;24.90;97.90
38582;DHT22;24349;53.720;10.014;2022-08-30T14:37:24;24.80;97.10
38582;DHT22;24349;53.720;10.014;2022-08-30T14:39:49;24.80;95.50
38582;DHT22;24349;53.720;10.014;2022-08-30T14:42:15;24.60;95.60
38582;DHT22;24349;53.720;10.014;2022-08-30T14:44:41;24.60;96.40
38582;DHT22;24349;53.720;10.014;2022-08-30T14:47:07;24.70;95.90
38582;DHT22;24349;53.720;10.014;2022-08-30T14:49:33;24.80;97.10
38582;DHT22;24349;53.720;10.014;2022-08-30T14:51:58;24.60;95.50
38582;DHT22;24349;53.720;10.014;2022-08-30T14:54:26;24.20;95.80
38582;DHT22;24349;53.720;10.014;2022-08-30T14:56:53;23.60;97.00
38582;DHT22;24349;53.720;10.014;2022-08-30T14:59:19;23.40;98.00
38582;DHT22;24349;53.720;10.014;2022-08-30T15:01:45;23.40;98.30
38582;DHT22;24349;53.720;10.014;2022-08-30T15:04:12;23.50;98.80
38582;DHT22;24349;53.720;10.014;2022-08-30T15:06:40;23.60;97.90
38582;DHT22;24349;53.720;10.014;2022-08-30T15:09:07;24.00;97.00
38582;DHT22;24349;53.720;10.014;2022-08-30T15:11:34;24.30;97.30
38582;DHT22;24349;53.720;10.014;2022-08-30T15:14:00;24.40;97.30
38582;DHT22;24349;53.720;10.014;2022-08-30T15:16:32;24.30;95.40
38582;DHT22;24349;53.720;10.014;2022-08-30T15:18:58;24.50;96.40
38582;DHT22;24349;53.720;10.014;2022-08-30T15:21:26;24.20;96.40
38582;DHT22;24349;53.720;10.014;2022-08-30T15:23:52;24.10;96.20
38582;DHT22;24349;53.720;10.014;2022-08-30T15:26:18;24.20;96.00
38582;DHT22;24349;53.720;10.014;2022-08-30T15:28:44;23.80;96.20
38582;DHT22;24349;53.720;10.014;2022-08-30T15:31:10;23.40;97.90
38582;DHT22;24349;53.720;10.014;2022-08-30T15:33:37;23.10;98.00
38582;DHT22;24349;53.720;10.014;2022-08-30T15:36:04;22.50;99.30
38582;DHT22;24349;53.720;10.014;2022-08-30T15:38:30;22.20;99.90
38582;DHT22;24349;53.720;10.014;2022-08-30T15:40:56;22.30;99.90
38582;DHT22;24349;53.720;10.014;2022-08-30T15:43:26;22.60;99.20
38582;DHT22;24349;53.720;10.014;2022-08-30T15:45:53;22.70;98.60
38582;DHT22;24349;53.720;10.014;2022-08-30T15:48:19;23.00;98.70
38582;DHT22;24349;53.720;10.014;2022-08-30T15:50:44;23.20;96.80
38582;DHT22;24349;53.720;10.014;2022-08-30T15:53:10;23.20;95.10
38582;DHT22;24349;53.720;10.014;2022-08-30T15:55:36;23.00;93.40
38582;DHT22;24349;53.720;10.014;2022-08-30T15:58:02;22.80;93.00
38582;DHT22;24349;53.720;10.014;2022-08-30T16:00:27;22.80;92.50
38582;DHT22;24349;53.720;10.014;2022-08-30T16:02:53;22.50;91.30
38582;DHT22;24349;53.720;10.014;2022-08-30T16:05:19;22.40;92.30
38582;DHT22;24349;53.720;10.014;2022-08-30T16:07:48;22.50;92.10
38582;DHT22;24349;53.720;10.014;2022-08-30T16:10:14;22.40;91.80
38582;DHT22;24349;53.720;10.014;2022-08-30T16:12:40;22.40;91.70
38582;DHT22;24349;53.720;10.014;2022-08-30T16:15:06;22.30;90.50
38582;DHT22;24349;53.720;10.014;2022-08-30T16:17:32;22.20;90.70
38582;DHT22;24349;53.720;10.014;2022-08-30T16:19:57;22.00;90.80
38582;DHT22;24349;53.720;10.014;2022-08-30T16:22:23;21.90;90.70
38582;DHT22;24349;53.720;10.014;2022-08-30T16:24:50;22.00;91.50
38582;DHT22;24349;53.720;10.014;2022-08-30T16:27:16;22.10;90.70
38582;DHT22;24349;53.720;10.014;2022-08-30T16:29:42;22.10;91.50
38582;DHT22;24349;53.720;10.014;2022-08-30T16:32:07;22.20;90.50
38582;DHT22;24349;53.720;10.014;2022-08-30T16:34:33;22.00;88.40
38582;DHT22;24349;53.720;10.014;2022-08-30T16:36:59;21.80;90.00
38582;DHT22;24349;53.720;10.014;2022-08-30T16:39:24;21.80;88.90
38582;DHT22;24349;53.720;10.014;2022-08-30T16:41:50;21.70;89.10
38582;DHT22;24349;53.720;10.014;2022-08-30T16:44:16;21.60;89.20
38582;DHT22;24349;53.720;10.014;2022-08-30T16:46:42;21.40;87.90
38582;DHT22;24349;53.720;10.014;2022-08-30T16:49:08;21.00;88.30
38582;DHT22;24349;53.720;10.014;2022-08-30T16:51:34;20.70;89.30
38582;DHT22;24349;53.720;10.014;2022-08-30T16:54:04;20.50;89.50
38582;DHT22;24349;53.720;10.014;2022-08-30T16:56:31;20.30;90.00
38582;DHT22;24349;53.720;10.014;2022-08-30T16:58:58;20.00;90.50
38582;DHT22;24349;53.720;10.014;2022-08-30T17:01:24;19.80;90.70